sensor_id;sensor_type;location;lat;lon;timestamp;pressure;altitude;pressure_sealevel;temperature;humidity
19526;BME280;9907;42.676;26.348;2023-04-22T00:00:36;98639.81;;;9.89;88.20
19526;BME280;9907;42.676;26.348;2023-04-22T00:03:02;98636.84;;;9.92;87.78
19526;BME280;9907;42.676;26.348;2023-04-22T00:05:28;98646.41;;;9.85;88.44
19526;BME280;9907;42.676;26.348;2023-04-22T00:07:54;98645.16;;;9.79;89.82
19526;BME280;9907;42.676;26.348;2023-04-22T00:10:19;98652.03;;;9.82;89.42
19526;BME280;9907;42.676;26.348;2023-04-22T00:12:45;98646.81;;;9.80;88.29
19526;BME280;9907;42.676;26.348;2023-04-22T00:15:10;98637.28;;;9.58;89.76
19526;BME280;9907;42.676;26.348;2023-04-22T00:17:36;98642.47;;;9.50;90.77
19526;BME280;9907;42.676;26.348;2023-04-22T00:20:02;98640.25;;;9.55;90.24
19526;BME280;9907;42.676;26.348;2023-04-22T00:22:28;98642.94;;;9.46;91.09
19526;BME280;9907;42.676;26.348;2023-04-22T00:24:53;98655.09;;;9.39;91.99
19526;BME280;9907;42.676;26.348;2023-04-22T00:27:19;98654.56;;;9.45;92.60
19526;BME280;9907;42.676;26.348;2023-04-22T00:29:44;98655.94;;;9.39;92.66
19526;BME280;9907;42.676;26.348;2023-04-22T00:32:10;98652.56;;;9.27;92.58
19526;BME280;9907;42.676;26.348;2023-04-22T00:34:35;98658.75;;;9.47;92.40
19526;BME280;9907;42.676;26.348;2023-04-22T00:37:01;98650.63;;;9.39;91.76
19526;BME280;9907;42.676;26.348;2023-04-22T00:39:26;98649.53;;;9.42;92.60
19526;BME280;9907;42.676;26.348;2023-04-22T00:41:52;98648.53;;;9.52;90.86
19526;BME280;9907;42.676;26.348;2023-04-22T00:44:18;98655.94;;;9.39;91.00
19526;BME280;9907;42.676;26.348;2023-04-22T00:46:43;98651.03;;;9.25;92.60
19526;BME280;9907;42.676;26.348;2023-04-22T00:49:09;98652.03;;;9.43;92.06
19526;BME280;9907;42.676;26.348;2023-04-22T00:51:35;98648.09;;;9.38;93.92
19526;BME280;9907;42.676;26.348;2023-04-22T00:54:01;98645.28;;;9.39;92.19
19526;BME280;9907;42.676;26.348;2023-04-22T00:56:28;98647.09;;;9.39;93.83
19526;BME280;9907;42.676;26.348;2023-04-22T00:58:54;98644.75;;;9.64;92.55
19526;BME280;9907;42.676;26.348;2023-04-22T01:01:20;98643.88;;;9.73;90.25
19526;BME280;9907;42.676;26.348;2023-04-22T01:03:48;98651.22;;;9.71;91.09
19526;BME280;9907;42.676;26.348;2023-04-22T01:06:15;98645.84;;;9.81;90.11
19526;BME280;9907;42.676;26.348;2023-04-22T01:08:42;98652.75;;;9.74;89.36
19526;BME280;9907;42.676;26.348;2023-04-22T01:11:08;98639.00;;;9.59;90.90
19526;BME280;9907;42.676;26.348;2023-04-22T01:13:33;98637.00;;;9.61;90.91
19526;BME280;9907;42.676;26.348;2023-04-22T01:16:01;98634.78;;;9.66;89.95
19526;BME280;9907;42.676;26.348;2023-04-22T01:18:27;98634.63;;;9.77;90.87
19526;BME280;9907;42.676;26.348;2023-04-22T01:20:52;98631.53;;;9.72;89.64
19526;BME280;9907;42.676;26.348;2023-04-22T01:23:19;98634.63;;;9.77;90.76
19526;BME280;9907;42.676;26.348;2023-04-22T01:25:45;98630.41;;;9.85;90.62
19526;BME280;9907;42.676;26.348;2023-04-22T01:28:12;98628.16;;;9.80;89.04
19526;BME280;9907;42.676;26.348;2023-04-22T01:30:37;98632.38;;;9.73;88.16
19526;BME280;9907;42.676;26.348;2023-04-22T01:33:03;98627.63;;;9.67;89.90
19526;BME280;9907;42.676;26.348;2023-04-22T01:35:29;98627.88;;;9.54;89.25
19526;BME280;9907;42.676;26.348;2023-04-22T01:38:04;98623.13;;;9.48;89.72
19526;BME280;9907;42.676;26.348;2023-04-22T01:40:31;98626.47;;;9.21;91.94
19526;BME280;9907;42.676;26.348;2023-04-22T01:42:58;98624.34;;;9.06;93.83
19526;BME280;9907;42.676;26.348;2023-04-22T01:45:23;98615.94;;;9.01;94.62
19526;BME280;9907;42.676;26.348;2023-04-22T01:47:48;98617.88;;;8.89;94.89
19526;BME280;9907;42.676;26.348;2023-04-22T01:50:14;98623.09;;;9.10;94.99
19526;BME280;9907;42.676;26.348;2023-04-22T01:52:40;98616.34;;;9.06;92.64
19526;BME280;9907;42.676;26.348;2023-04-22T01:55:07;98624.91;;;9.00;93.71
19526;BME280;9907;42.676;26.348;2023-04-22T01:57:32;98615.94;;;9.01;94.10
19526;BME280;9907;42.676;26.348;2023-04-22T01:59:58;98625.75;;;9.00;93.39
19526;BME280;9907;42.676;26.348;2023-04-22T02:02:23;98618.63;;;9.01;93.32
19526;BME280;9907;42.676;26.348;2023-04-22T02:04:49;98620.72;;;8.97;93.19
19526;BME280;9907;42.676;26.348;2023-04-22T02:07:14;98614.38;;;8.98;92.95
19526;BME280;9907;42.676;26.348;2023-04-22T02:09:40;98617.47;;;9.13;92.67
19526;BME280;9907;42.676;26.348;2023-04-22T02:12:05;98620.16;;;9.32;92.45
19526;BME280;9907;42.676;26.348;2023-04-22T02:14:31;98612.19;;;9.22;91.43
19526;BME280;9907;42.676;26.348;2023-04-22T02:16:56;98618.50;;;9.31;91.19
19526;BME280;9907;42.676;26.348;2023-04-22T02:19:22;98612.44;;;9.10;93.10
19526;BME280;9907;42.676;26.348;2023-04-22T02:21:47;98605.59;;;9.26;92.77
19526;BME280;9907;42.676;26.348;2023-04-22T02:24:13;98604.47;;;9.39;91.87
19526;BME280;9907;42.676;26.348;2023-04-22T02:26:38;98608.69;;;9.41;91.16
19526;BME280;9907;42.676;26.348;2023-04-22T02:29:04;98609.38;;;9.34;90.25
19526;BME280;9907;42.676;26.348;2023-04-22T02:31:29;98607.84;;;9.12;92.76
19526;BME280;9907;42.676;26.348;2023-04-22T02:33:55;98603.88;;;9.06;92.50
19526;BME280;9907;42.676;26.348;2023-04-22T02:36:20;98602.75;;;8.99;93.27
19526;BME280;9907;42.676;26.348;2023-04-22T02:38:46;98607.66;;;8.94;94.49
19526;BME280;9907;42.676;26.348;2023-04-22T02:41:11;98603.47;;;9.01;94.40
19526;BME280;9907;42.676;26.348;2023-04-22T02:43:37;98605.56;;;9.07;93.58
19526;BME280;9907;42.676;26.348;2023-04-22T02:46:02;98605.28;;;9.01;93.68
19526;BME280;9907;42.676;26.348;2023-04-22T02:48:28;98613.16;;;9.12;93.83
19526;BME280;9907;42.676;26.348;2023-04-22T02:50:53;98606.25;;;9.09;93.25
19526;BME280;9907;42.676;26.348;2023-04-22T02:53:18;98601.22;;;9.06;94.51
19526;BME280;9907;42.676;26.348;2023-04-22T02:55:44;98600.97;;;9.19;94.56
19526;BME280;9907;42.676;26.348;2023-04-22T02:58:09;98601.25;;;9.25;93.57
19526;BME280;9907;42.676;26.348;2023-04-22T03:00:35;98613.59;;;9.36;93.13
19526;BME280;9907;42.676;26.348;2023-04-22T03:03:00;98613.59;;;9.36;92.02
19526;BME280;9907;42.676;26.348;2023-04-22T03:05:26;98616.09;;;9.18;94.04
19526;BME280;9907;42.676;26.348;2023-04-22T03:07:52;98615.53;;;9.05;94.67
19526;BME280;9907;42.676;26.348;2023-04-22T03:10:18;98609.34;;;8.95;95.55
19526;BME280;9907;42.676;26.348;2023-04-22T03:12:43;98612.16;;;8.94;96.67
19526;BME280;9907;42.676;26.348;2023-04-22T03:15:09;98621.41;;;8.90;97.83
19526;BME280;9907;42.676;26.348;2023-04-22T03:17:34;98621.91;;;8.84;94.50
19526;BME280;9907;42.676;26.348;2023-04-22T03:20:00;98628.25;;;8.83;93.98
19526;BME280;9907;42.676;26.348;2023-04-22T03:22:25;98620.84;;;8.96;94.18
19526;BME280;9907;42.676;26.348;2023-04-22T03:24:51;98623.78;;;8.93;93.47
19526;BME280;9907;42.676;26.348;2023-04-22T03:27:16;98624.47;;;8.85;93.43
19526;BME280;9907;42.676;26.348;2023-04-22T03:29:42;98620.25;;;8.83;93.96
19526;BME280;9907;42.676;26.348;2023-04-22T03:32:07;98626.44;;;8.83;93.91
19526;BME280;9907;42.676;26.348;2023-04-22T03:34:32;98633.22;;;8.66;95.51
19526;BME280;9907;42.676;26.348;2023-04-22T03:36:58;98624.69;;;8.72;94.79
19526;BME280;9907;42.676;26.348;2023-04-22T03:39:23;98636.75;;;8.76;97.38
19526;BME280;9907;42.676;26.348;2023-04-22T03:41:49;98641.50;;;8.73;97.46
19526;BME280;9907;42.676;26.348;2023-04-22T03:44:14;98645.44;;;8.69;98.91
19526;BME280;9907;42.676;26.348;2023-04-22T03:46:40;98653.00;;;8.73;98.29
19526;BME280;9907;42.676;26.348;2023-04-22T03:49:05;98659.47;;;8.80;98.82
19526;BME280;9907;42.676;26.348;2023-04-22T03:51:30;98662.16;;;8.80;98.74
19526;BME280;9907;42.676;26.348;2023-04-22T03:53:56;98663.13;;;8.79;98.94
19526;BME280;9907;42.676;26.348;2023-04-22T03:56:21;98669.84;;;8.84;98.10
19526;BME280;9907;42.676;26.348;2023-04-22T03:58:49;98669.75;;;8.95;97.32
19526;BME280;9907;42.676;26.348;2023-04-22T04:01:14;98671.75;;;9.02;97.16
19526;BME280;9907;42.676;26.348;2023-04-22T04:03:40;98666.44;;;9.12;94.52
19526;BME280;9907;42.676;26.348;2023-04-22T04:06:06;98666.84;;;9.17;93.84
19526;BME280;9907;42.676;26.348;2023-04-22T04:08:31;98672.91;;;9.19;94.98
19526;BME280;9907;42.676;26.348;2023-04-22T04:10:57;98673.31;;;9.24;94.18
19526;BME280;9907;42.676;26.348;2023-04-22T04:13:22;98672.75;;;9.20;93.74
19526;BME280;9907;42.676;26.348;2023-04-22T04:15:48;98679.94;;;9.20;94.88
19526;BME280;9907;42.676;26.348;2023-04-22T04:18:13;98671.94;;;9.20;95.21
19526;BME280;9907;42.676;26.348;2023-04-22T04:20:39;98673.59;;;9.21;97.57
19526;BME280;9907;42.676;26.348;2023-04-22T04:23:04;98676.00;;;9.24;97.56
19526;BME280;9907;42.676;26.348;2023-04-22T04:25:30;98675.88;;;9.35;96.02
19526;BME280;9907;42.676;26.348;2023-04-22T04:28:05;98680.38;;;9.44;96.76
19526;BME280;9907;42.676;26.348;2023-04-22T04:30:34;98685.59;;;9.46;96.73
19526;BME280;9907;42.676;26.348;2023-04-22T04:32:59;98679.56;;;9.53;95.77
19526;BME280;9907;42.676;26.348;2023-04-22T04:35:31;98678.13;;;9.59;96.39
19526;BME280;9907;42.676;26.348;2023-04-22T04:37:59;98680.25;;;9.65;96.23
19526;BME280;9907;42.676;26.348;2023-04-22T04:40:25;98685.03;;;9.71;97.88
19526;BME280;9907;42.676;26.348;2023-04-22T04:42:53;98682.22;;;9.82;97.44
19526;BME280;9907;42.676;26.348;2023-04-22T04:45:20;98681.22;;;10.12;98.61
19526;BME280;9907;42.676;26.348;2023-04-22T04:47:46;98682.00;;;10.41;96.58
19526;BME280;9907;42.676;26.348;2023-04-22T04:50:15;98679.09;;;10.71;95.77
19526;BME280;9907;42.676;26.348;2023-04-22T04:52:40;98675.75;;;10.97;93.45
19526;BME280;9907;42.676;26.348;2023-04-22T04:55:06;98683.38;;;11.19;92.60
19526;BME280;9907;42.676;26.348;2023-04-22T04:57:32;98677.28;;;11.44;89.07
19526;BME280;9907;42.676;26.348;2023-04-22T04:59:57;98682.94;;;11.59;86.29
19526;BME280;9907;42.676;26.348;2023-04-22T05:02:23;98679.91;;;11.71;84.29
19526;BME280;9907;42.676;26.348;2023-04-22T05:04:48;98684.66;;;11.78;84.13
19526;BME280;9907;42.676;26.348;2023-04-22T05:07:14;98688.38;;;12.02;80.53
19526;BME280;9907;42.676;26.348;2023-04-22T05:09:39;98682.22;;;12.28;79.53
19526;BME280;9907;42.676;26.348;2023-04-22T05:12:05;98678.16;;;12.49;76.95
19526;BME280;9907;42.676;26.348;2023-04-22T05:14:30;98679.63;;;12.69;74.12
19526;BME280;9907;42.676;26.348;2023-04-22T05:16:56;98685.28;;;12.92;75.69
19526;BME280;9907;42.676;26.348;2023-04-22T05:19:21;98681.94;;;12.98;74.44
19526;BME280;9907;42.676;26.348;2023-04-22T05:21:47;98681.75;;;12.92;75.78
19526;BME280;9907;42.676;26.348;2023-04-22T05:24:12;98693.88;;;12.70;74.65
19526;BME280;9907;42.676;26.348;2023-04-22T05:26:38;98694.25;;;12.49;79.30
19526;BME280;9907;42.676;26.348;2023-04-22T05:29:03;98691.88;;;12.46;78.32
19526;BME280;9907;42.676;26.348;2023-04-22T05:31:29;98699.03;;;12.38;83.45
19526;BME280;9907;42.676;26.348;2023-04-22T05:33:54;98699.50;;;12.33;84.11
19526;BME280;9907;42.676;26.348;2023-04-22T05:36:20;98696.66;;;12.35;82.02
19526;BME280;9907;42.676;26.348;2023-04-22T05:38:45;98699.34;;;12.35;84.46
19526;BME280;9907;42.676;26.348;2023-04-22T05:41:11;98702.06;;;12.43;85.75
19526;BME280;9907;42.676;26.348;2023-04-22T05:43:36;98707.44;;;12.43;85.21
19526;BME280;9907;42.676;26.348;2023-04-22T05:46:02;98712.25;;;12.39;84.61
19526;BME280;9907;42.676;26.348;2023-04-22T05:48:27;98709.44;;;12.41;85.36
19526;BME280;9907;42.676;26.348;2023-04-22T05:50:53;98710.56;;;12.38;85.44
19526;BME280;9907;42.676;26.348;2023-04-22T05:53:18;98711.41;;;12.39;84.50
19526;BME280;9907;42.676;26.348;2023-04-22T05:55:44;98713.63;;;12.43;82.69
19526;BME280;9907;42.676;26.348;2023-04-22T05:58:09;98713.63;;;12.43;81.31
19526;BME280;9907;42.676;26.348;2023-04-22T06:00:35;98704.63;;;12.44;80.57
19526;BME280;9907;42.676;26.348;2023-04-22T06:03:00;98719.38;;;12.48;81.02
19526;BME280;9907;42.676;26.348;2023-04-22T06:05:26;98717.38;;;12.50;80.44
19526;BME280;9907;42.676;26.348;2023-04-22T06:07:52;98718.72;;;12.54;80.16
19526;BME280;9907;42.676;26.348;2023-04-22T06:10:17;98723.09;;;12.55;79.51
19526;BME280;9907;42.676;26.348;2023-04-22T06:12:43;98721.09;;;12.57;78.91
19526;BME280;9907;42.676;26.348;2023-04-22T06:15:08;98722.47;;;12.61;81.15
19526;BME280;9907;42.676;26.348;2023-04-22T06:17:35;98721.63;;;12.61;82.17
19526;BME280;9907;42.676;26.348;2023-04-22T06:20:01;98720.78;;;12.60;83.14
19526;BME280;9907;42.676;26.348;2023-04-22T06:22:26;98727.81;;;12.61;85.63
19526;BME280;9907;42.676;26.348;2023-04-22T06:24:52;98724.03;;;12.72;85.02
19526;BME280;9907;42.676;26.348;2023-04-22T06:27:17;98740.28;;;12.71;85.04
19526;BME280;9907;42.676;26.348;2023-04-22T06:29:42;98737.94;;;12.76;85.77
19526;BME280;9907;42.676;26.348;2023-04-22T06:32:08;98743.00;;;12.79;86.05
19526;BME280;9907;42.676;26.348;2023-04-22T06:34:33;98737.44;;;12.72;86.91
19526;BME280;9907;42.676;26.348;2023-04-22T06:36:59;98749.63;;;12.66;85.92
19526;BME280;9907;42.676;26.348;2023-04-22T06:39:24;98745.13;;;12.67;85.83
19526;BME280;9907;42.676;26.348;2023-04-22T06:41:50;98756.19;;;12.72;85.71
19526;BME280;9907;42.676;26.348;2023-04-22T06:44:15;98760.09;;;12.78;81.09
19526;BME280;9907;42.676;26.348;2023-04-22T06:46:41;98763.44;;;12.80;77.63
19526;BME280;9907;42.676;26.348;2023-04-22T06:49:06;98765.59;;;12.76;75.40
19526;BME280;9907;42.676;26.348;2023-04-22T06:51:32;98770.63;;;12.71;75.18
19526;BME280;9907;42.676;26.348;2023-04-22T06:53:57;98768.59;;;12.73;74.34
19526;BME280;9907;42.676;26.348;2023-04-22T06:56:23;98764.59;;;12.77;74.79
19526;BME280;9907;42.676;26.348;2023-04-22T06:58:49;98780.50;;;12.79;76.77
19526;BME280;9907;42.676;26.348;2023-04-22T07:01:14;98777.75;;;12.88;76.75
19526;BME280;9907;42.676;26.348;2023-04-22T07:03:40;98777.94;;;12.95;77.37
19526;BME280;9907;42.676;26.348;2023-04-22T07:06:05;98777.94;;;12.95;76.45
19526;BME280;9907;42.676;26.348;2023-04-22T07:08:31;98783.50;;;12.93;75.38
19526;BME280;9907;42.676;26.348;2023-04-22T07:10:56;98789.50;;;12.95;77.81
19526;BME280;9907;42.676;26.348;2023-04-22T07:13:22;98783.38;;;13.03;76.92
19526;BME280;9907;42.676;26.348;2023-04-22T07:15:47;98784.88;;;13.05;76.04
19526;BME280;9907;42.676;26.348;2023-04-22T07:18:13;98783.31;;;12.95;73.96
19526;BME280;9907;42.676;26.348;2023-04-22T07:20:38;98790.50;;;12.94;74.49
19526;BME280;9907;42.676;26.348;2023-04-22T07:23:04;98790.03;;;12.99;74.46
19526;BME280;9907;42.676;26.348;2023-04-22T07:25:29;98788.66;;;12.95;74.97
19526;BME280;9907;42.676;26.348;2023-04-22T07:27:55;98783.84;;;12.98;75.54
19526;BME280;9907;42.676;26.348;2023-04-22T07:30:20;98793.91;;;13.04;74.44
19526;BME280;9907;42.676;26.348;2023-04-22T07:32:46;98784.03;;;13.05;74.23
19526;BME280;9907;42.676;26.348;2023-04-22T07:35:11;98792.16;;;13.13;74.60
19526;BME280;9907;42.676;26.348;2023-04-22T07:37:36;98796.06;;;13.19;75.40
19526;BME280;9907;42.676;26.348;2023-04-22T07:40:02;98795.94;;;13.28;74.77
19526;BME280;9907;42.676;26.348;2023-04-22T07:42:28;98796.25;;;13.25;75.22
19526;BME280;9907;42.676;26.348;2023-04-22T07:44:53;98796.25;;;13.25;77.37
19526;BME280;9907;42.676;26.348;2023-04-22T07:47:19;98799.97;;;13.32;76.51
19526;BME280;9907;42.676;26.348;2023-04-22T07:49:44;98799.81;;;13.34;76.42
19526;BME280;9907;42.676;26.348;2023-04-22T07:52:10;98800.63;;;13.34;77.20
19526;BME280;9907;42.676;26.348;2023-04-22T07:54:35;98794.94;;;13.29;76.42
19526;BME280;9907;42.676;26.348;2023-04-22T07:57:01;98799.81;;;13.34;76.26
19526;BME280;9907;42.676;26.348;2023-04-22T07:59:27;98798.31;;;13.39;76.45
19526;BME280;9907;42.676;26.348;2023-04-22T08:01:52;98800.63;;;13.34;76.10
19526;BME280;9907;42.676;26.348;2023-04-22T08:04:21;98806.38;;;13.39;75.80
19526;BME280;9907;42.676;26.348;2023-04-22T08:06:47;98804.34;;;13.33;75.90
19526;BME280;9907;42.676;26.348;2023-04-22T08:09:12;98807.06;;;13.41;76.62
19526;BME280;9907;42.676;26.348;2023-04-22T08:11:37;98815.13;;;13.49;78.03
19526;BME280;9907;42.676;26.348;2023-04-22T08:14:03;98818.50;;;13.51;76.75
19526;BME280;9907;42.676;26.348;2023-04-22T08:16:28;98823.56;;;13.54;77.66
19526;BME280;9907;42.676;26.348;2023-04-22T08:18:54;98818.69;;;13.58;78.69
19526;BME280;9907;42.676;26.348;2023-04-22T08:21:21;98825.75;;;13.59;79.34
19526;BME280;9907;42.676;26.348;2023-04-22T08:23:47;98824.22;;;13.56;78.55
19526;BME280;9907;42.676;26.348;2023-04-22T08:26:12;98827.75;;;13.57;79.77
19526;BME280;9907;42.676;26.348;2023-04-22T08:28:39;98819.50;;;13.50;80.41
19526;BME280;9907;42.676;26.348;2023-04-22T08:31:05;98822.16;;;13.42;81.34
19526;BME280;9907;42.676;26.348;2023-04-22T08:33:33;98823.88;;;13.51;79.83
19526;BME280;9907;42.676;26.348;2023-04-22T08:35:59;98823.25;;;13.65;80.46
19526;BME280;9907;42.676;26.348;2023-04-22T08:38:25;98823.25;;;13.65;82.03
19526;BME280;9907;42.676;26.348;2023-04-22T08:40:50;98817.19;;;13.63;81.60
19526;BME280;9907;42.676;26.348;2023-04-22T08:43:16;98821.59;;;13.73;82.30
19526;BME280;9907;42.676;26.348;2023-04-22T08:45:43;98816.41;;;13.79;80.45
19526;BME280;9907;42.676;26.348;2023-04-22T08:48:10;98824.31;;;13.81;79.38
19526;BME280;9907;42.676;26.348;2023-04-22T08:50:37;98820.81;;;13.88;79.89
19526;BME280;9907;42.676;26.348;2023-04-22T08:53:05;98813.63;;;13.89;78.60
19526;BME280;9907;42.676;26.348;2023-04-22T08:55:33;98814.16;;;14.00;78.41
19526;BME280;9907;42.676;26.348;2023-04-22T08:58:00;98809.28;;;13.96;78.44
19526;BME280;9907;42.676;26.348;2023-04-22T09:00:28;98808.78;;;14.00;77.71
19526;BME280;9907;42.676;26.348;2023-04-22T09:02:54;98804.22;;;14.01;77.50
19526;BME280;9907;42.676;26.348;2023-04-22T09:05:21;98810.44;;;14.01;72.34
19526;BME280;9907;42.676;26.348;2023-04-22T09:07:49;98810.63;;;14.08;72.60
19526;BME280;9907;42.676;26.348;2023-04-22T09:10:14;98819.72;;;14.15;74.84
19526;BME280;9907;42.676;26.348;2023-04-22T09:12:40;98819.06;;;14.21;74.19
19526;BME280;9907;42.676;26.348;2023-04-22T09:15:06;98808.47;;;14.28;72.77
19526;BME280;9907;42.676;26.348;2023-04-22T09:17:34;98807.69;;;14.35;71.53
19526;BME280;9907;42.676;26.348;2023-04-22T09:20:03;98802.81;;;14.39;70.96
19526;BME280;9907;42.676;26.348;2023-04-22T09:22:42;98804.00;;;14.44;70.14
19526;BME280;9907;42.676;26.348;2023-04-22T09:25:19;98806.00;;;14.50;70.25
19526;BME280;9907;42.676;26.348;2023-04-22T09:27:58;98802.13;;;14.53;70.27
19526;BME280;9907;42.676;26.348;2023-04-22T09:30:28;98808.00;;;14.56;69.41
19526;BME280;9907;42.676;26.348;2023-04-22T09:32:55;98804.16;;;14.59;69.35
19526;BME280;9907;42.676;26.348;2023-04-22T09:37:57;98796.06;;;14.67;68.79
19526;BME280;9907;42.676;26.348;2023-04-22T09:40:23;98799.31;;;14.71;67.76
19526;BME280;9907;42.676;26.348;2023-04-22T09:42:53;98797.25;;;14.81;67.92
19526;BME280;9907;42.676;26.348;2023-04-22T09:50:34;98786.91;;;15.25;67.30
19526;BME280;9907;42.676;26.348;2023-04-22T09:53:14;98783.34;;;15.40;67.52
19526;BME280;9907;42.676;26.348;2023-04-22T09:55:46;98775.19;;;15.48;66.32
19526;BME280;9907;42.676;26.348;2023-04-22T09:58:16;98770.16;;;15.45;66.13
19526;BME280;9907;42.676;26.348;2023-04-22T10:00:45;98767.47;;;15.53;65.22
19526;BME280;9907;42.676;26.348;2023-04-22T10:03:12;98760.88;;;15.64;64.45
19526;BME280;9907;42.676;26.348;2023-04-22T10:05:38;98764.41;;;15.65;65.06
19526;BME280;9907;42.676;26.348;2023-04-22T10:08:04;98758.59;;;15.84;66.89
19526;BME280;9907;42.676;26.348;2023-04-22T10:10:30;98767.66;;;15.83;64.80
19526;BME280;9907;42.676;26.348;2023-04-22T10:12:56;98759.66;;;15.97;65.45
19526;BME280;9907;42.676;26.348;2023-04-22T10:15:23;98759.09;;;16.10;64.96
19526;BME280;9907;42.676;26.348;2023-04-22T10:17:51;98765.47;;;16.09;64.96
19526;BME280;9907;42.676;26.348;2023-04-22T10:20:19;98756.34;;;16.18;63.79
19526;BME280;9907;42.676;26.348;2023-04-22T10:22:45;98751.00;;;16.10;63.73
19526;BME280;9907;42.676;26.348;2023-04-22T10:25:21;98750.47;;;16.15;65.85
19526;BME280;9907;42.676;26.348;2023-04-22T10:28:04;98751.97;;;16.17;63.10
19526;BME280;9907;42.676;26.348;2023-04-22T10:30:31;98748.44;;;16.17;62.93
19526;BME280;9907;42.676;26.348;2023-04-22T10:41:34;98743.25;;;16.30;64.67
19526;BME280;9907;42.676;26.348;2023-04-22T10:44:03;98739.44;;;16.24;63.97
19526;BME280;9907;42.676;26.348;2023-04-22T10:59:46;98743.63;;;16.27;61.40
19526;BME280;9907;42.676;26.348;2023-04-22T11:02:15;98743.50;;;16.20;61.01
19526;BME280;9907;42.676;26.348;2023-04-22T11:04:41;98743.50;;;16.20;61.18
19526;BME280;9907;42.676;26.348;2023-04-22T11:10:00;98740.22;;;16.33;61.87
19526;BME280;9907;42.676;26.348;2023-04-22T11:17:31;98739.50;;;16.62;58.22
19526;BME280;9907;42.676;26.348;2023-04-22T11:19:57;98739.13;;;16.42;56.38
19526;BME280;9907;42.676;26.348;2023-04-22T11:22:23;98742.59;;;16.50;57.55
19526;BME280;9907;42.676;26.348;2023-04-22T11:24:59;98740.53;;;16.52;52.76
19526;BME280;9907;42.676;26.348;2023-04-22T11:27:26;98739.31;;;16.40;47.11
19526;BME280;9907;42.676;26.348;2023-04-22T11:30:08;98736.06;;;16.45;48.10
19526;BME280;9907;42.676;26.348;2023-04-22T11:32:37;98731.28;;;16.55;45.22
19526;BME280;9907;42.676;26.348;2023-04-22T11:35:05;98725.81;;;16.63;44.69
19526;BME280;9907;42.676;26.348;2023-04-22T11:37:39;98726.56;;;16.72;42.76
19526;BME280;9907;42.676;26.348;2023-04-22T11:40:09;98722.97;;;16.79;43.35
19526;BME280;9907;42.676;26.348;2023-04-22T11:42:36;98724.91;;;16.85;44.50
19526;BME280;9907;42.676;26.348;2023-04-22T11:45:01;98718.50;;;16.86;43.08
19526;BME280;9907;42.676;26.348;2023-04-22T11:47:30;98721.75;;;16.82;42.30
19526;BME280;9907;42.676;26.348;2023-04-22T11:50:01;98716.09;;;16.77;42.74
19526;BME280;9907;42.676;26.348;2023-04-22T11:52:48;98715.34;;;16.83;42.94
19526;BME280;9907;42.676;26.348;2023-04-22T11:55:19;98718.50;;;16.86;43.06
19526;BME280;9907;42.676;26.348;2023-04-22T11:57:51;98722.81;;;16.95;42.84
19526;BME280;9907;42.676;26.348;2023-04-22T12:00:17;98719.06;;;16.96;42.29
19526;BME280;9907;42.676;26.348;2023-04-22T12:02:53;98713.09;;;17.01;42.04
19526;BME280;9907;42.676;26.348;2023-04-22T12:05:20;98719.81;;;17.05;41.64
19526;BME280;9907;42.676;26.348;2023-04-22T12:07:46;98717.97;;;17.06;42.28
19526;BME280;9907;42.676;26.348;2023-04-22T12:10:14;98709.41;;;17.02;41.62
19526;BME280;9907;42.676;26.348;2023-04-22T12:12:39;98709.00;;;17.20;42.25
19526;BME280;9907;42.676;26.348;2023-04-22T12:15:07;98706.13;;;17.21;42.43
19526;BME280;9907;42.676;26.348;2023-04-22T12:17:33;98704.13;;;17.44;46.91
19526;BME280;9907;42.676;26.348;2023-04-22T12:19:58;98707.13;;;17.35;44.76
19526;BME280;9907;42.676;26.348;2023-04-22T12:22:25;98700.50;;;17.37;46.98
19526;BME280;9907;42.676;26.348;2023-04-22T12:24:51;98706.13;;;17.21;46.15
19526;BME280;9907;42.676;26.348;2023-04-22T12:27:16;98703.06;;;17.10;46.33
19526;BME280;9907;42.676;26.348;2023-04-22T12:29:50;98698.50;;;17.10;46.45
19526;BME280;9907;42.676;26.348;2023-04-22T12:32:16;98700.38;;;17.10;45.62
19526;BME280;9907;42.676;26.348;2023-04-22T12:34:42;98708.25;;;17.11;46.14
19526;BME280;9907;42.676;26.348;2023-04-22T12:37:07;98702.22;;;17.09;45.76
19526;BME280;9907;42.676;26.348;2023-04-22T12:39:33;98698.59;;;17.17;46.35
19526;BME280;9907;42.676;26.348;2023-04-22T12:41:58;98701.47;;;17.15;46.60
19526;BME280;9907;42.676;26.348;2023-04-22T12:44:24;98697.75;;;17.16;47.28
19526;BME280;9907;42.676;26.348;2023-04-22T12:46:49;98706.22;;;17.13;47.16
19526;BME280;9907;42.676;26.348;2023-04-22T12:49:15;98711.44;;;17.15;48.03
19526;BME280;9907;42.676;26.348;2023-04-22T12:51:40;98703.53;;;17.13;47.36
19526;BME280;9907;42.676;26.348;2023-04-22T12:54:06;98703.81;;;17.18;46.93
19526;BME280;9907;42.676;26.348;2023-04-22T12:56:31;98697.59;;;17.18;46.97
19526;BME280;9907;42.676;26.348;2023-04-22T12:58:57;98690.69;;;17.15;47.19
19526;BME280;9907;42.676;26.348;2023-04-22T13:01:27;98696.84;;;17.09;46.54
19526;BME280;9907;42.676;26.348;2023-04-22T13:03:52;98701.47;;;17.15;47.55
19526;BME280;9907;42.676;26.348;2023-04-22T13:06:18;98698.03;;;17.21;47.21
19526;BME280;9907;42.676;26.348;2023-04-22T13:08:44;98702.84;;;17.26;48.24
19526;BME280;9907;42.676;26.348;2023-04-22T13:11:09;98698.28;;;17.26;50.27
19526;BME280;9907;42.676;26.348;2023-04-22T13:13:35;98695.50;;;17.34;47.57
19526;BME280;9907;42.676;26.348;2023-04-22T13:16:00;98694.66;;;17.34;50.14
19526;BME280;9907;42.676;26.348;2023-04-22T13:18:27;98691.78;;;17.35;49.42
19526;BME280;9907;42.676;26.348;2023-04-22T13:20:53;98696.34;;;17.35;49.66
19526;BME280;9907;42.676;26.348;2023-04-22T13:23:22;98694.59;;;17.27;49.37
19526;BME280;9907;42.676;26.348;2023-04-22T13:25:51;98695.44;;;17.28;49.40
19526;BME280;9907;42.676;26.348;2023-04-22T13:28:16;98690.47;;;17.31;49.17
19526;BME280;9907;42.676;26.348;2023-04-22T13:30:42;98692.56;;;17.29;51.24
19526;BME280;9907;42.676;26.348;2023-04-22T13:33:07;98696.91;;;17.16;49.54
19526;BME280;9907;42.676;26.348;2023-04-22T13:35:32;98695.53;;;17.05;49.72
19526;BME280;9907;42.676;26.348;2023-04-22T13:37:58;98702.59;;;17.06;50.15